sensor_id;sensor_type;location;lat;lon;timestamp;P1;durP1;ratioP1;P2;durP2;ratioP2
45114;SDS011;30877;43.706;10.780;2023-11-21T00:00:27;9.57;;;4.30;;
45114;SDS011;30877;43.706;10.780;2023-11-21T00:02:55;6.68;;;3.90;;
45114;SDS011;30877;43.706;10.780;2023-11-21T00:05:25;7.35;;;4.10;;
45114;SDS011;30877;43.706;10.780;2023-11-21T00:07:54;6.75;;;3.67;;
45114;SDS011;30877;43.706;10.780;2023-11-21T00:10:22;8.75;;;4.25;;
45114;SDS011;30877;43.706;10.780;2023-11-21T00:12:52;8.15;;;3.97;;
45114;SDS011;30877;43.706;10.780;2023-11-21T00:15:22;8.85;;;4.28;;
45114;SDS011;30877;43.706;10.780;2023-11-21T00:17:50;6.60;;;4.03;;
45114;SDS011;30877;43.706;10.780;2023-11-21T00:20:18;6.25;;;3.70;;
45114;SDS011;30877;43.706;10.780;2023-11-21T00:22:47;8.43;;;3.92;;
45114;SDS011;30877;43.706;10.780;2023-11-21T00:25:16;7.22;;;4.13;;
45114;SDS011;30877;43.706;10.780;2023-11-21T00:27:44;8.93;;;4.10;;
45114;SDS011;30877;43.706;10.780;2023-11-21T00:30:15;6.63;;;4.03;;
45114;SDS011;30877;43.706;10.780;2023-11-21T00:32:43;8.55;;;4.40;;
45114;SDS011;30877;43.706;10.780;2023-11-21T00:35:12;6.43;;;4.65;;
45114;SDS011;30877;43.706;10.780;2023-11-21T00:37:40;13.15;;;4.28;;
45114;SDS011;30877;43.706;10.780;2023-11-21T00:40:10;8.60;;;3.95;;
45114;SDS011;30877;43.706;10.780;2023-11-21T00:42:39;7.80;;;3.90;;
45114;SDS011;30877;43.706;10.780;2023-11-21T00:45:08;6.68;;;3.38;;
45114;SDS011;30877;43.706;10.780;2023-11-21T00:47:38;6.65;;;3.67;;
45114;SDS011;30877;43.706;10.780;2023-11-21T00:50:06;8.55;;;4.20;;
45114;SDS011;30877;43.706;10.780;2023-11-21T00:52:35;6.15;;;3.85;;
45114;SDS011;30877;43.706;10.780;2023-11-21T00:55:04;5.85;;;3.30;;
45114;SDS011;30877;43.706;10.780;2023-11-21T00:57:34;6.88;;;3.42;;
45114;SDS011;30877;43.706;10.780;2023-11-21T01:00:03;7.40;;;4.10;;
45114;SDS011;30877;43.706;10.780;2023-11-21T01:02:42;10.15;;;3.78;;
45114;SDS011;30877;43.706;10.780;2023-11-21T01:05:12;6.75;;;3.90;;
45114;SDS011;30877;43.706;10.780;2023-11-21T01:07:40;9.32;;;4.18;;
45114;SDS011;30877;43.706;10.780;2023-11-21T01:10:08;8.48;;;3.97;;
45114;SDS011;30877;43.706;10.780;2023-11-21T01:12:37;6.45;;;4.15;;
45114;SDS011;30877;43.706;10.780;2023-11-21T01:15:06;7.75;;;3.80;;
45114;SDS011;30877;43.706;10.780;2023-11-21T01:17:35;5.63;;;3.70;;
45114;SDS011;30877;43.706;10.780;2023-11-21T01:20:05;10.43;;;4.43;;
45114;SDS011;30877;43.706;10.780;2023-11-21T01:22:41;7.38;;;4.15;;
45114;SDS011;30877;43.706;10.780;2023-11-21T01:25:10;8.20;;;5.07;;
45114;SDS011;30877;43.706;10.780;2023-11-21T01:27:39;9.00;;;6.20;;
45114;SDS011;30877;43.706;10.780;2023-11-21T01:30:07;9.10;;;5.28;;
45114;SDS011;30877;43.706;10.780;2023-11-21T01:32:37;8.20;;;5.38;;
45114;SDS011;30877;43.706;10.780;2023-11-21T01:35:09;8.35;;;5.15;;
45114;SDS011;30877;43.706;10.780;2023-11-21T01:37:37;10.68;;;5.70;;
45114;SDS011;30877;43.706;10.780;2023-11-21T01:40:06;9.25;;;5.22;;
45114;SDS011;30877;43.706;10.780;2023-11-21T01:42:38;9.10;;;5.53;;
45114;SDS011;30877;43.706;10.780;2023-11-21T01:45:07;7.35;;;4.90;;
45114;SDS011;30877;43.706;10.780;2023-11-21T01:47:36;7.43;;;5.15;;
45114;SDS011;30877;43.706;10.780;2023-11-21T01:50:09;10.00;;;5.47;;
45114;SDS011;30877;43.706;10.780;2023-11-21T01:52:41;9.88;;;5.10;;
45114;SDS011;30877;43.706;10.780;2023-11-21T01:55:10;8.95;;;5.22;;
45114;SDS011;30877;43.706;10.780;2023-11-21T01:57:53;10.25;;;5.30;;
45114;SDS011;30877;43.706;10.780;2023-11-21T02:00:23;9.43;;;5.22;;
45114;SDS011;30877;43.706;10.780;2023-11-21T02:02:55;7.55;;;5.13;;
45114;SDS011;30877;43.706;10.780;2023-11-21T02:05:25;8.02;;;5.70;;
45114;SDS011;30877;43.706;10.780;2023-11-21T02:07:53;8.68;;;5.90;;
45114;SDS011;30877;43.706;10.780;2023-11-21T02:10:23;9.38;;;5.25;;
45114;SDS011;30877;43.706;10.780;2023-11-21T02:12:51;8.70;;;5.35;;
45114;SDS011;30877;43.706;10.780;2023-11-21T02:15:20;9.85;;;5.38;;
45114;SDS011;30877;43.706;10.780;2023-11-21T02:17:50;8.63;;;5.13;;
45114;SDS011;30877;43.706;10.780;2023-11-21T02:20:20;8.30;;;5.32;;
45114;SDS011;30877;43.706;10.780;2023-11-21T02:22:51;10.68;;;4.85;;
45114;SDS011;30877;43.706;10.780;2023-11-21T02:25:26;8.30;;;4.93;;
45114;SDS011;30877;43.706;10.780;2023-11-21T02:27:55;8.68;;;5.63;;
45114;SDS011;30877;43.706;10.780;2023-11-21T02:30:24;8.60;;;5.15;;
45114;SDS011;30877;43.706;10.780;2023-11-21T02:32:53;9.13;;;5.88;;
45114;SDS011;30877;43.706;10.780;2023-11-21T02:35:21;11.48;;;6.10;;
45114;SDS011;30877;43.706;10.780;2023-11-21T02:37:51;8.38;;;5.22;;
45114;SDS011;30877;43.706;10.780;2023-11-21T02:40:19;12.02;;;5.03;;
45114;SDS011;30877;43.706;10.780;2023-11-21T02:42:48;8.55;;;4.78;;
45114;SDS011;30877;43.706;10.780;2023-11-21T02:45:20;9.20;;;4.85;;
45114;SDS011;30877;43.706;10.780;2023-11-21T02:47:50;7.53;;;4.95;;
45114;SDS011;30877;43.706;10.780;2023-11-21T02:50:20;8.55;;;5.22;;
45114;SDS011;30877;43.706;10.780;2023-11-21T02:52:53;9.23;;;5.40;;
45114;SDS011;30877;43.706;10.780;2023-11-21T02:55:21;9.35;;;5.13;;
45114;SDS011;30877;43.706;10.780;2023-11-21T02:57:53;6.10;;;4.63;;
45114;SDS011;30877;43.706;10.780;2023-11-21T03:00:23;9.48;;;4.80;;
45114;SDS011;30877;43.706;10.780;2023-11-21T03:02:54;7.97;;;4.57;;
45114;SDS011;30877;43.706;10.780;2023-11-21T03:05:25;7.45;;;4.40;;
45114;SDS011;30877;43.706;10.780;2023-11-21T03:07:55;6.93;;;4.32;;
45114;SDS011;30877;43.706;10.780;2023-11-21T03:10:25;7.05;;;4.03;;
45114;SDS011;30877;43.706;10.780;2023-11-21T03:12:55;5.68;;;3.72;;
45114;SDS011;30877;43.706;10.780;2023-11-21T03:15:24;6.22;;;4.03;;
45114;SDS011;30877;43.706;10.780;2023-11-21T03:17:52;9.02;;;4.30;;
45114;SDS011;30877;43.706;10.780;2023-11-21T03:20:21;7.95;;;4.30;;
45114;SDS011;30877;43.706;10.780;2023-11-21T03:22:49;6.45;;;4.15;;
45114;SDS011;30877;43.706;10.780;2023-11-21T03:25:19;5.88;;;3.40;;
45114;SDS011;30877;43.706;10.780;2023-11-21T03:27:48;6.38;;;4.10;;
45114;SDS011;30877;43.706;10.780;2023-11-21T03:30:16;11.88;;;3.95;;
45114;SDS011;30877;43.706;10.780;2023-11-21T03:32:45;8.88;;;4.57;;
45114;SDS011;30877;43.706;10.780;2023-11-21T03:35:14;6.78;;;3.72;;
45114;SDS011;30877;43.706;10.780;2023-11-21T03:37:42;7.32;;;3.33;;
45114;SDS011;30877;43.706;10.780;2023-11-21T03:40:11;7.03;;;3.63;;
45114;SDS011;30877;43.706;10.780;2023-11-21T03:42:41;6.05;;;3.20;;
45114;SDS011;30877;43.706;10.780;2023-11-21T03:45:10;9.27;;;3.60;;
45114;SDS011;30877;43.706;10.780;2023-11-21T03:47:40;7.70;;;3.75;;
45114;SDS011;30877;43.706;10.780;2023-11-21T03:50:09;6.57;;;3.90;;
45114;SDS011;30877;43.706;10.780;2023-11-21T03:52:37;7.03;;;3.33;;
45114;SDS011;30877;43.706;10.780;2023-11-21T03:55:06;6.43;;;3.30;;
45114;SDS011;30877;43.706;10.780;2023-11-21T03:57:36;5.15;;;3.58;;
45114;SDS011;30877;43.706;10.780;2023-11-21T04:00:07;6.03;;;3.92;;
45114;SDS011;30877;43.706;10.780;2023-11-21T04:02:38;7.88;;;3.90;;
45114;SDS011;30877;43.706;10.780;2023-11-21T04:05:07;6.50;;;3.78;;
45114;SDS011;30877;43.706;10.780;2023-11-21T04:07:36;8.82;;;4.05;;
45114;SDS011;30877;43.706;10.780;2023-11-21T04:10:06;6.22;;;3.60;;
45114;SDS011;30877;43.706;10.780;2023-11-21T04:12:36;9.15;;;3.75;;
45114;SDS011;30877;43.706;10.780;2023-11-21T04:15:06;8.25;;;3.78;;
45114;SDS011;30877;43.706;10.780;2023-11-21T04:17:36;6.63;;;3.67;;
45114;SDS011;30877;43.706;10.780;2023-11-21T04:20:04;6.38;;;3.95;;
45114;SDS011;30877;43.706;10.780;2023-11-21T04:22:37;8.95;;;4.50;;
45114;SDS011;30877;43.706;10.780;2023-11-21T04:25:08;8.20;;;4.47;;
45114;SDS011;30877;43.706;10.780;2023-11-21T04:27:38;9.10;;;4.80;;
45114;SDS011;30877;43.706;10.780;2023-11-21T04:30:09;6.25;;;4.40;;
45114;SDS011;30877;43.706;10.780;2023-11-21T04:32:38;8.85;;;4.47;;
45114;SDS011;30877;43.706;10.780;2023-11-21T04:35:12;7.57;;;4.28;;
45114;SDS011;30877;43.706;10.780;2023-11-21T04:37:40;11.88;;;5.20;;
45114;SDS011;30877;43.706;10.780;2023-11-21T04:40:08;8.55;;;4.78;;
45114;SDS011;30877;43.706;10.780;2023-11-21T04:42:38;9.50;;;4.82;;
45114;SDS011;30877;43.706;10.780;2023-11-21T04:45:07;9.98;;;5.00;;
45114;SDS011;30877;43.706;10.780;2023-11-21T04:47:40;9.30;;;4.68;;
45114;SDS011;30877;43.706;10.780;2023-11-21T04:50:08;8.73;;;4.93;;
45114;SDS011;30877;43.706;10.780;2023-11-21T04:52:37;6.90;;;4.57;;
45114;SDS011;30877;43.706;10.780;2023-11-21T04:55:06;6.82;;;5.00;;
45114;SDS011;30877;43.706;10.780;2023-11-21T04:57:38;7.47;;;4.80;;
45114;SDS011;30877;43.706;10.780;2023-11-21T05:00:11;10.60;;;4.72;;
45114;SDS011;30877;43.706;10.780;2023-11-21T05:02:40;7.57;;;5.00;;
45114;SDS011;30877;43.706;10.780;2023-11-21T05:05:09;6.47;;;4.75;;
45114;SDS011;30877;43.706;10.780;2023-11-21T05:07:38;9.45;;;4.75;;
45114;SDS011;30877;43.706;10.780;2023-11-21T05:10:07;7.40;;;5.40;;
45114;SDS011;30877;43.706;10.780;2023-11-21T05:12:40;9.55;;;4.88;;
45114;SDS011;30877;43.706;10.780;2023-11-21T05:15:12;11.48;;;5.55;;
45114;SDS011;30877;43.706;10.780;2023-11-21T05:17:42;7.10;;;4.50;;
45114;SDS011;30877;43.706;10.780;2023-11-21T05:20:15;6.72;;;4.30;;
45114;SDS011;30877;43.706;10.780;2023-11-21T05:25:18;7.57;;;3.53;;
45114;SDS011;30877;43.706;10.780;2023-11-21T05:27:47;5.35;;;3.35;;
45114;SDS011;30877;43.706;10.780;2023-11-21T05:30:17;5.53;;;3.38;;
45114;SDS011;30877;43.706;10.780;2023-11-21T05:32:45;7.63;;;3.40;;
45114;SDS011;30877;43.706;10.780;2023-11-21T05:35:14;7.57;;;3.70;;
45114;SDS011;30877;43.706;10.780;2023-11-21T05:37:45;5.68;;;2.92;;
45114;SDS011;30877;43.706;10.780;2023-11-21T05:40:14;5.95;;;3.17;;
45114;SDS011;30877;43.706;10.780;2023-11-21T05:42:42;6.63;;;2.58;;
45114;SDS011;30877;43.706;10.780;2023-11-21T05:45:11;6.45;;;2.83;;
45114;SDS011;30877;43.706;10.780;2023-11-21T05:47:41;10.82;;;3.28;;
45114;SDS011;30877;43.706;10.780;2023-11-21T05:50:11;4.18;;;2.55;;
45114;SDS011;30877;43.706;10.780;2023-11-21T05:52:42;6.45;;;3.25;;
45114;SDS011;30877;43.706;10.780;2023-11-21T05:55:11;4.22;;;2.38;;
45114;SDS011;30877;43.706;10.780;2023-11-21T05:57:41;4.22;;;2.70;;
45114;SDS011;30877;43.706;10.780;2023-11-21T06:00:11;4.57;;;2.85;;
45114;SDS011;30877;43.706;10.780;2023-11-21T06:02:54;8.25;;;3.70;;
45114;SDS011;30877;43.706;10.780;2023-11-21T06:05:24;6.85;;;3.80;;
45114;SDS011;30877;43.706;10.780;2023-11-21T06:07:54;5.57;;;3.20;;
45114;SDS011;30877;43.706;10.780;2023-11-21T06:10:26;6.30;;;3.65;;
45114;SDS011;30877;43.706;10.780;2023-11-21T06:12:56;8.82;;;3.75;;
45114;SDS011;30877;43.706;10.780;2023-11-21T06:15:30;7.53;;;4.32;;
45114;SDS011;30877;43.706;10.780;2023-11-21T06:17:59;6.80;;;4.47;;
45114;SDS011;30877;43.706;10.780;2023-11-21T06:20:28;8.82;;;4.88;;
45114;SDS011;30877;43.706;10.780;2023-11-21T06:22:56;7.93;;;4.50;;
45114;SDS011;30877;43.706;10.780;2023-11-21T06:25:24;6.75;;;4.40;;
45114;SDS011;30877;43.706;10.780;2023-11-21T06:27:52;8.95;;;4.30;;
45114;SDS011;30877;43.706;10.780;2023-11-21T06:30:21;8.15;;;4.70;;
45114;SDS011;30877;43.706;10.780;2023-11-21T06:32:50;10.98;;;4.50;;
45114;SDS011;30877;43.706;10.780;2023-11-21T06:35:21;7.95;;;4.63;;
45114;SDS011;30877;43.706;10.780;2023-11-21T06:37:50;8.35;;;5.18;;
45114;SDS011;30877;43.706;10.780;2023-11-21T06:40:19;9.02;;;4.50;;
45114;SDS011;30877;43.706;10.780;2023-11-21T06:42:48;8.75;;;4.45;;
45114;SDS011;30877;43.706;10.780;2023-11-21T06:45:17;6.75;;;4.45;;
45114;SDS011;30877;43.706;10.780;2023-11-21T06:47:47;10.48;;;5.28;;
45114;SDS011;30877;43.706;10.780;2023-11-21T06:50:16;9.63;;;5.40;;
45114;SDS011;30877;43.706;10.780;2023-11-21T06:52:46;10.15;;;5.13;;
45114;SDS011;30877;43.706;10.780;2023-11-21T06:55:14;10.25;;;5.00;;
45114;SDS011;30877;43.706;10.780;2023-11-21T06:57:43;7.50;;;4.90;;
45114;SDS011;30877;43.706;10.780;2023-11-21T07:00:12;8.13;;;4.65;;
45114;SDS011;30877;43.706;10.780;2023-11-21T07:02:42;7.50;;;4.75;;
45114;SDS011;30877;43.706;10.780;2023-11-21T07:05:11;8.23;;;5.05;;
45114;SDS011;30877;43.706;10.780;2023-11-21T07:07:41;9.90;;;5.38;;
45114;SDS011;30877;43.706;10.780;2023-11-21T07:10:12;9.27;;;5.50;;
45114;SDS011;30877;43.706;10.780;2023-11-21T07:12:41;10.82;;;6.03;;
45114;SDS011;30877;43.706;10.780;2023-11-21T07:15:09;11.43;;;5.95;;
45114;SDS011;30877;43.706;10.780;2023-11-21T07:17:37;12.15;;;5.82;;
45114;SDS011;30877;43.706;10.780;2023-11-21T07:20:08;8.38;;;5.32;;
45114;SDS011;30877;43.706;10.780;2023-11-21T07:22:38;8.07;;;4.68;;
45114;SDS011;30877;43.706;10.780;2023-11-21T07:25:08;8.00;;;4.95;;
45114;SDS011;30877;43.706;10.780;2023-11-21T07:27:40;10.18;;;4.93;;
45114;SDS011;30877;43.706;10.780;2023-11-21T07:30:09;8.55;;;5.55;;
45114;SDS011;30877;43.706;10.780;2023-11-21T07:32:40;8.52;;;5.75;;
45114;SDS011;30877;43.706;10.780;2023-11-21T07:35:08;8.48;;;4.82;;
45114;SDS011;30877;43.706;10.780;2023-11-21T07:37:37;10.90;;;5.20;;
45114;SDS011;30877;43.706;10.780;2023-11-21T07:40:06;6.03;;;4.55;;
45114;SDS011;30877;43.706;10.780;2023-11-21T07:42:36;8.95;;;4.90;;
45114;SDS011;30877;43.706;10.780;2023-11-21T07:45:06;6.20;;;4.68;;
45114;SDS011;30877;43.706;10.780;2023-11-21T07:47:35;9.75;;;4.93;;
45114;SDS011;30877;43.706;10.780;2023-11-21T07:50:04;10.05;;;4.93;;
45114;SDS011;30877;43.706;10.780;2023-11-21T07:52:36;8.15;;;5.07;;
45114;SDS011;30877;43.706;10.780;2023-11-21T07:55:04;12.43;;;6.88;;
45114;SDS011;30877;43.706;10.780;2023-11-21T07:57:35;12.75;;;7.32;;
45114;SDS011;30877;43.706;10.780;2023-11-21T08:00:06;11.93;;;7.53;;
45114;SDS011;30877;43.706;10.780;2023-11-21T08:02:39;8.80;;;5.90;;
45114;SDS011;30877;43.706;10.780;2023-11-21T08:05:13;9.63;;;5.68;;
45114;SDS011;30877;43.706;10.780;2023-11-21T08:07:54;10.70;;;5.28;;
45114;SDS011;30877;43.706;10.780;2023-11-21T08:10:28;12.88;;;4.75;;
45114;SDS011;30877;43.706;10.780;2023-11-21T08:12:57;8.18;;;5.35;;
45114;SDS011;30877;43.706;10.780;2023-11-21T08:15:28;8.60;;;5.05;;
45114;SDS011;30877;43.706;10.780;2023-11-21T08:17:58;12.05;;;5.45;;
45114;SDS011;30877;43.706;10.780;2023-11-21T08:20:26;9.10;;;5.70;;
45114;SDS011;30877;43.706;10.780;2023-11-21T08:22:57;6.45;;;4.43;;
45114;SDS011;30877;43.706;10.780;2023-11-21T08:25:26;9.50;;;4.82;;
45114;SDS011;30877;43.706;10.780;2023-11-21T08:28:00;6.20;;;4.25;;
45114;SDS011;30877;43.706;10.780;2023-11-21T08:30:30;10.48;;;4.53;;
45114;SDS011;30877;43.706;10.780;2023-11-21T08:32:59;9.10;;;5.13;;
45114;SDS011;30877;43.706;10.780;2023-11-21T08:35:27;6.93;;;4.72;;
45114;SDS011;30877;43.706;10.780;2023-11-21T08:37:55;7.65;;;4.53;;
45114;SDS011;30877;43.706;10.780;2023-11-21T08:40:24;8.52;;;4.40;;
45114;SDS011;30877;43.706;10.780;2023-11-21T08:42:52;7.90;;;4.75;;
45114;SDS011;30877;43.706;10.780;2023-11-21T08:45:22;7.63;;;4.43;;
45114;SDS011;30877;43.706;10.780;2023-11-21T08:47:51;8.98;;;4.68;;
45114;SDS011;30877;43.706;10.780;2023-11-21T08:50:20;9.50;;;5.07;;
45114;SDS011;30877;43.706;10.780;2023-11-21T08:52:48;9.15;;;5.63;;
45114;SDS011;30877;43.706;10.780;2023-11-21T08:55:16;10.23;;;4.90;;
45114;SDS011;30877;43.706;10.780;2023-11-21T08:57:47;10.02;;;5.88;;
45114;SDS011;30877;43.706;10.780;2023-11-21T09:00:15;11.43;;;5.50;;
45114;SDS011;30877;43.706;10.780;2023-11-21T09:02:44;11.52;;;5.50;;
45114;SDS011;30877;43.706;10.780;2023-11-21T09:05:14;8.93;;;5.25;;
45114;SDS011;30877;43.706;10.780;2023-11-21T09:07:43;8.55;;;5.13;;
45114;SDS011;30877;43.706;10.780;2023-11-21T09:10:13;8.35;;;5.45;;
45114;SDS011;30877;43.706;10.780;2023-11-21T09:12:41;10.57;;;5.65;;
45114;SDS011;30877;43.706;10.780;2023-11-21T09:15:10;10.82;;;5.43;;
45114;SDS011;30877;43.706;10.780;2023-11-21T09:17:38;11.18;;;5.15;;
45114;SDS011;30877;43.706;10.780;2023-11-21T09:20:08;8.32;;;5.50;;
45114;SDS011;30877;43.706;10.780;2023-11-21T09:22:39;7.15;;;5.20;;
45114;SDS011;30877;43.706;10.780;2023-11-21T09:25:08;8.48;;;5.85;;
45114;SDS011;30877;43.706;10.780;2023-11-21T09:27:36;11.10;;;6.25;;
45114;SDS011;30877;43.706;10.780;2023-11-21T09:30:05;13.18;;;6.47;;
45114;SDS011;30877;43.706;10.780;2023-11-21T09:32:37;11.73;;;7.28;;
45114;SDS011;30877;43.706;10.780;2023-11-21T09:35:08;11.05;;;6.82;;
45114;SDS011;30877;43.706;10.780;2023-11-21T09:37:37;10.68;;;6.63;;
45114;SDS011;30877;43.706;10.780;2023-11-21T09:40:07;10.75;;;6.72;;
45114;SDS011;30877;43.706;10.780;2023-11-21T09:42:43;13.02;;;5.55;;
45114;SDS011;30877;43.706;10.780;2023-11-21T09:45:21;8.48;;;5.50;;
45114;SDS011;30877;43.706;10.780;2023-11-21T09:47:54;8.15;;;4.78;;
45114;SDS011;30877;43.706;10.780;2023-11-21T09:50:23;10.93;;;5.63;;
45114;SDS011;30877;43.706;10.780;2023-11-21T09:52:57;41.47;;;19.90;;
45114;SDS011;30877;43.706;10.780;2023-11-21T09:55:29;32.13;;;17.15;;
45114;SDS011;30877;43.706;10.780;2023-11-21T09:58:03;26.00;;;14.20;;
45114;SDS011;30877;43.706;10.780;2023-11-21T10:00:35;33.03;;;15.07;;
45114;SDS011;30877;43.706;10.780;2023-11-21T10:03:03;14.27;;;7.72;;
45114;SDS011;30877;43.706;10.780;2023-11-21T10:05:31;10.65;;;5.93;;
45114;SDS011;30877;43.706;10.780;2023-11-21T10:08:06;52.10;;;35.80;;
45114;SDS011;30877;43.706;10.780;2023-11-21T10:10:42;16.80;;;10.23;;
45114;SDS011;30877;43.706;10.780;2023-11-21T10:13:13;14.70;;;9.60;;
45114;SDS011;30877;43.706;10.780;2023-11-21T10:15:46;13.77;;;9.00;;
45114;SDS011;30877;43.706;10.780;2023-11-21T10:18:20;31.25;;;20.52;;
45114;SDS011;30877;43.706;10.780;2023-11-21T10:20:54;63.30;;;42.67;;
45114;SDS011;30877;43.706;10.780;2023-11-21T10:23:25;75.07;;;59.15;;
45114;SDS011;30877;43.706;10.780;2023-11-21T10:25:54;40.17;;;30.75;;
45114;SDS011;30877;43.706;10.780;2023-11-21T10:28:31;16.52;;;11.00;;
45114;SDS011;30877;43.706;10.780;2023-11-21T10:31:06;29.77;;;20.30;;
45114;SDS011;30877;43.706;10.780;2023-11-21T10:33:35;46.63;;;33.65;;
45114;SDS011;30877;43.706;10.780;2023-11-21T10:36:03;25.63;;;17.73;;
45114;SDS011;30877;43.706;10.780;2023-11-21T10:38:35;16.83;;;7.43;;
45114;SDS011;30877;43.706;10.780;2023-11-21T10:41:15;12.55;;;8.00;;
45114;SDS011;30877;43.706;10.780;2023-11-21T10:43:46;14.13;;;7.80;;
45114;SDS011;30877;43.706;10.780;2023-11-21T10:46:14;12.27;;;8.00;;
45114;SDS011;30877;43.706;10.780;2023-11-21T10:48:43;13.45;;;6.95;;
45114;SDS011;30877;43.706;10.780;2023-11-21T10:51:12;13.13;;;7.05;;
45114;SDS011;30877;43.706;10.780;2023-11-21T10:53:43;12.38;;;6.40;;
45114;SDS011;30877;43.706;10.780;2023-11-21T10:56:15;10.65;;;5.85;;
45114;SDS011;30877;43.706;10.780;2023-11-21T10:58:47;9.98;;;5.28;;
45114;SDS011;30877;43.706;10.780;2023-11-21T11:01:19;10.95;;;5.90;;
45114;SDS011;30877;43.706;10.780;2023-11-21T11:03:50;10.70;;;5.47;;
45114;SDS011;30877;43.706;10.780;2023-11-21T11:06:22;12.10;;;4.88;;
45114;SDS011;30877;43.706;10.780;2023-11-21T11:08:55;12.05;;;4.82;;
45114;SDS011;30877;43.706;10.780;2023-11-21T11:11:24;8.20;;;4.43;;
45114;SDS011;30877;43.706;10.780;2023-11-21T11:13:53;7.63;;;4.18;;
45114;SDS011;30877;43.706;10.780;2023-11-21T11:16:22;9.27;;;4.25;;
45114;SDS011;30877;43.706;10.780;2023-11-21T11:18:52;9.05;;;4.30;;
45114;SDS011;30877;43.706;10.780;2023-11-21T11:21:23;9.23;;;4.55;;
45114;SDS011;30877;43.706;10.780;2023-11-21T11:24:08;8.57;;;4.70;;
45114;SDS011;30877;43.706;10.780;2023-11-21T11:27:02;10.13;;;5.00;;
45114;SDS011;30877;43.706;10.780;2023-11-21T11:29:40;7.53;;;3.63;;
45114;SDS011;30877;43.706;10.780;2023-11-21T11:32:18;8.00;;;3.65;;
45114;SDS011;30877;43.706;10.780;2023-11-21T11:34:53;11.05;;;3.83;;
45114;SDS011;30877;43.706;10.780;2023-11-21T11:37:29;9.30;;;3.55;;
45114;SDS011;30877;43.706;10.780;2023-11-21T11:39:59;6.22;;;3.47;;
45114;SDS011;30877;43.706;10.780;2023-11-21T11:42:27;9.80;;;4.30;;
45114;SDS011;30877;43.706;10.780;2023-11-21T11:44:57;7.15;;;4.00;;
45114;SDS011;30877;43.706;10.780;2023-11-21T11:47:26;11.07;;;4.10;;
45114;SDS011;30877;43.706;10.780;2023-11-21T11:50:02;9.85;;;3.70;;
45114;SDS011;30877;43.706;10.780;2023-11-21T11:52:36;6.22;;;2.70;;
45114;SDS011;30877;43.706;10.780;2023-11-21T11:55:09;11.57;;;3.55;;
45114;SDS011;30877;43.706;10.780;2023-11-21T11:57:41;6.88;;;3.28;;
45114;SDS011;30877;43.706;10.780;2023-11-21T12:00:12;8.05;;;3.47;;
45114;SDS011;30877;43.706;10.780;2023-11-21T12:02:49;9.15;;;2.47;;
45114;SDS011;30877;43.706;10.780;2023-11-21T12:05:19;7.53;;;3.00;;
45114;SDS011;30877;43.706;10.780;2023-11-21T12:07:49;7.55;;;2.75;;
45114;SDS011;30877;43.706;10.780;2023-11-21T12:10:23;8.85;;;3.35;;
45114;SDS011;30877;43.706;10.780;2023-11-21T12:12:52;9.02;;;3.65;;
45114;SDS011;30877;43.706;10.780;2023-11-21T12:15:22;6.72;;;2.53;;
45114;SDS011;30877;43.706;10.780;2023-11-21T12:17:51;6.80;;;2.75;;
45114;SDS011;30877;43.706;10.780;2023-11-21T12:20:21;6.38;;;3.17;;
45114;SDS011;30877;43.706;10.780;2023-11-21T12:22:51;5.70;;;2.03;;
45114;SDS011;30877;43.706;10.780;2023-11-21T12:25:20;6.55;;;2.35;;
45114;SDS011;30877;43.706;10.780;2023-11-21T12:27:52;8.10;;;2.55;;
45114;SDS011;30877;43.706;10.780;2023-11-21T12:30:21;7.88;;;2.13;;
45114;SDS011;30877;43.706;10.780;2023-11-21T12:32:52;5.85;;;2.10;;
45114;SDS011;30877;43.706;10.780;2023-11-21T12:35:21;6.68;;;2.10;;
45114;SDS011;30877;43.706;10.780;2023-11-21T12:37:52;7.75;;;2.15;;
45114;SDS011;30877;43.706;10.780;2023-11-21T12:40:28;9.25;;;2.35;;
45114;SDS011;30877;43.706;10.780;2023-11-21T12:42:57;4.55;;;2.15;;
45114;SDS011;30877;43.706;10.780;2023-11-21T12:45:31;4.60;;;2.00;;
45114;SDS011;30877;43.706;10.780;2023-11-21T12:47:59;5.68;;;2.38;;
45114;SDS011;30877;43.706;10.780;2023-11-21T12:50:32;14.90;;;2.35;;
45114;SDS011;30877;43.706;10.780;2023-11-21T12:53:02;7.20;;;2.38;;
45114;SDS011;30877;43.706;10.780;2023-11-21T12:55:35;7.93;;;2.28;;
45114;SDS011;30877;43.706;10.780;2023-11-21T12:58:05;9.30;;;3.05;;
45114;SDS011;30877;43.706;10.780;2023-11-21T13:00:42;8.75;;;3.63;;
45114;SDS011;30877;43.706;10.780;2023-11-21T13:03:13;8.55;;;3.60;;
45114;SDS011;30877;43.706;10.780;2023-11-21T13:05:53;7.47;;;3.50;;
45114;SDS011;30877;43.706;10.780;2023-11-21T13:08:26;10.60;;;3.55;;
45114;SDS011;30877;43.706;10.780;2023-11-21T13:11:00;5.60;;;3.00;;
45114;SDS011;30877;43.706;10.780;2023-11-21T13:13:28;8.15;;;2.92;;
45114;SDS011;30877;43.706;10.780;2023-11-21T13:15:59;9.98;;;4.03;;
45114;SDS011;30877;43.706;10.780;2023-11-21T13:18:29;6.43;;;2.85;;
45114;SDS011;30877;43.706;10.780;2023-11-21T13:20:58;6.38;;;3.65;;
45114;SDS011;30877;43.706;10.780;2023-11-21T13:23:27;15.23;;;5.10;;
45114;SDS011;30877;43.706;10.780;2023-11-21T13:25:56;8.68;;;5.03;;
45114;SDS011;30877;43.706;10.780;2023-11-21T13:31:04;6.47;;;2.65;;
45114;SDS011;30877;43.706;10.780;2023-11-21T13:33:50;8.98;;;2.63;;
45114;SDS011;30877;43.706;10.780;2023-11-21T13:36:24;6.13;;;2.50;;
45114;SDS011;30877;43.706;10.780;2023-11-21T13:38:53;5.47;;;2.10;;
45114;SDS011;30877;43.706;10.780;2023-11-21T13:41:21;7.25;;;2.10;;
45114;SDS011;30877;43.706;10.780;2023-11-21T13:43:57;5.90;;;2.78;;
45114;SDS011;30877;43.706;10.780;2023-11-21T13:46:44;6.65;;;2.50;;
45114;SDS011;30877;43.706;10.780;2023-11-21T13:49:15;9.80;;;4.28;;
45114;SDS011;30877;43.706;10.780;2023-11-21T13:51:45;9.43;;;4.18;;
45114;SDS011;30877;43.706;10.780;2023-11-21T13:54:15;8.02;;;3.00;;
45114;SDS011;30877;43.706;10.780;2023-11-21T13:56:43;4.38;;;2.13;;
45114;SDS011;30877;43.706;10.780;2023-11-21T13:59:15;4.13;;;1.70;;
45114;SDS011;30877;43.706;10.780;2023-11-21T14:01:55;7.57;;;2.42;;
45114;SDS011;30877;43.706;10.780;2023-11-21T14:04:28;4.20;;;2.00;;
45114;SDS011;30877;43.706;10.780;2023-11-21T14:07:14;5.38;;;2.22;;
45114;SDS011;30877;43.706;10.780;2023-11-21T14:10:04;5.47;;;2.03;;
45114;SDS011;30877;43.706;10.780;2023-11-21T14:12:35;9.13;;;3.38;;
45114;SDS011;30877;43.706;10.780;2023-11-21T14:15:08;6.88;;;2.90;;
45114;SDS011;30877;43.706;10.780;2023-11-21T14:17:39;6.43;;;2.85;;
45114;SDS011;30877;43.706;10.780;2023-11-21T14:20:09;4.88;;;3.00;;
45114;SDS011;30877;43.706;10.780;2023-11-21T14:22:45;6.43;;;2.85;;
45114;SDS011;30877;43.706;10.780;2023-11-21T14:25:14;4.95;;;3.20;;
45114;SDS011;30877;43.706;10.780;2023-11-21T14:27:45;7.32;;;4.13;;
45114;SDS011;30877;43.706;10.780;2023-11-21T14:30:15;10.52;;;5.20;;
45114;SDS011;30877;43.706;10.780;2023-11-21T14:32:48;7.55;;;4.82;;
45114;SDS011;30877;43.706;10.780;2023-11-21T14:35:17;5.93;;;4.15;;
45114;SDS011;30877;43.706;10.780;2023-11-21T14:37:45;6.13;;;3.53;;
45114;SDS011;30877;43.706;10.780;2023-11-21T14:40:15;5.63;;;3.50;;
45114;SDS011;30877;43.706;10.780;2023-11-21T14:42:43;5.20;;;3.85;;
45114;SDS011;30877;43.706;10.780;2023-11-21T14:45:18;5.90;;;3.72;;
45114;SDS011;30877;43.706;10.780;2023-11-21T14:47:47;10.18;;;5.07;;
45114;SDS011;30877;43.706;10.780;2023-11-21T14:50:26;6.03;;;4.07;;
45114;SDS011;30877;43.706;10.780;2023-11-21T14:53:10;6.47;;;3.97;;
45114;SDS011;30877;43.706;10.780;2023-11-21T14:55:40;7.22;;;3.30;;